Аэропорт: Толмачёво. Новосибирск

ICAO: UNNT

METAR:
2020-06-01 02:00:00
UNNT 010200Z 12002MPS CAVOK 14/11 Q1009 R25/090160 R16/090070 NOSIG RMK QFE747/0996
METAR:
2020-05-31 23:00:00
TAF UNNT 312300Z 0100/0124 36003MPS 9999 BKN051CB TEMPO 0100/0102 3000 -SHRA BR BKN040CB BECMG 0109/0112 12003G08MPS TEMPO 0115/0122 -TSRA